sensor_id;sensor_type;location;lat;lon;timestamp;temperature;humidity
47168;DHT22;32931;47.778;17.806;2023-09-07T00:00:53;19.50;95.20
47168;DHT22;32931;47.778;17.806;2023-09-07T00:03:19;19.50;95.40
47168;DHT22;32931;47.778;17.806;2023-09-07T00:05:45;19.50;95.60
47168;DHT22;32931;47.778;17.806;2023-09-07T00:08:11;19.50;95.90
47168;DHT22;32931;47.778;17.806;2023-09-07T00:10:38;19.50;96.00
47168;DHT22;32931;47.778;17.806;2023-09-07T00:13:04;19.60;96.00
47168;DHT22;32931;47.778;17.806;2023-09-07T00:15:36;19.60;96.00
47168;DHT22;32931;47.778;17.806;2023-09-07T00:18:03;19.60;95.90
47168;DHT22;32931;47.778;17.806;2023-09-07T00:20:29;19.50;95.50
47168;DHT22;32931;47.778;17.806;2023-09-07T00:22:55;19.40;95.50
47168;DHT22;32931;47.778;17.806;2023-09-07T00:25:21;19.30;95.50
47168;DHT22;32931;47.778;17.806;2023-09-07T00:27:47;19.30;95.60
47168;DHT22;32931;47.778;17.806;2023-09-07T00:30:14;19.30;95.70
47168;DHT22;32931;47.778;17.806;2023-09-07T00:32:40;19.30;95.90
47168;DHT22;32931;47.778;17.806;2023-09-07T00:35:06;19.30;95.80
47168;DHT22;32931;47.778;17.806;2023-09-07T00:37:33;19.30;95.70
47168;DHT22;32931;47.778;17.806;2023-09-07T00:39:59;19.30;95.70
47168;DHT22;32931;47.778;17.806;2023-09-07T00:42:25;19.30;95.70
47168;DHT22;32931;47.778;17.806;2023-09-07T00:44:51;19.30;95.60
47168;DHT22;32931;47.778;17.806;2023-09-07T00:47:18;19.30;95.40
47168;DHT22;32931;47.778;17.806;2023-09-07T00:49:44;19.30;95.40
47168;DHT22;32931;47.778;17.806;2023-09-07T00:52:11;19.30;95.30
47168;DHT22;32931;47.778;17.806;2023-09-07T00:54:38;19.30;95.20
47168;DHT22;32931;47.778;17.806;2023-09-07T00:57:06;19.30;95.30
47168;DHT22;32931;47.778;17.806;2023-09-07T00:59:34;19.30;95.20
47168;DHT22;32931;47.778;17.806;2023-09-07T01:02:00;19.20;95.30
47168;DHT22;32931;47.778;17.806;2023-09-07T01:04:26;19.20;95.40
47168;DHT22;32931;47.778;17.806;2023-09-07T01:06:57;19.20;95.70
47168;DHT22;32931;47.778;17.806;2023-09-07T01:09:29;19.20;95.90
47168;DHT22;32931;47.778;17.806;2023-09-07T01:11:56;19.20;96.00
47168;DHT22;32931;47.778;17.806;2023-09-07T01:14:22;19.20;96.10
47168;DHT22;32931;47.778;17.806;2023-09-07T01:16:49;19.20;96.30
47168;DHT22;32931;47.778;17.806;2023-09-07T01:19:16;19.30;96.40
47168;DHT22;32931;47.778;17.806;2023-09-07T01:21:43;19.30;96.50
47168;DHT22;32931;47.778;17.806;2023-09-07T01:24:10;19.30;96.50
47168;DHT22;32931;47.778;17.806;2023-09-07T01:26:38;19.30;96.60
47168;DHT22;32931;47.778;17.806;2023-09-07T01:29:08;19.30;96.60
47168;DHT22;32931;47.778;17.806;2023-09-07T01:31:35;19.30;96.70
47168;DHT22;32931;47.778;17.806;2023-09-07T01:34:02;19.30;96.60
47168;DHT22;32931;47.778;17.806;2023-09-07T01:36:28;19.30;96.40
47168;DHT22;32931;47.778;17.806;2023-09-07T01:38:55;19.30;96.30
47168;DHT22;32931;47.778;17.806;2023-09-07T01:41:21;19.30;96.30
47168;DHT22;32931;47.778;17.806;2023-09-07T01:43:47;19.30;96.30
47168;DHT22;32931;47.778;17.806;2023-09-07T01:46:13;19.30;96.30
47168;DHT22;32931;47.778;17.806;2023-09-07T01:48:39;19.30;96.40
47168;DHT22;32931;47.778;17.806;2023-09-07T01:51:08;19.30;96.30
47168;DHT22;32931;47.778;17.806;2023-09-07T01:53:34;19.30;96.30
47168;DHT22;32931;47.778;17.806;2023-09-07T01:56:00;19.30;96.30
47168;DHT22;32931;47.778;17.806;2023-09-07T01:58:26;19.30;96.20
47168;DHT22;32931;47.778;17.806;2023-09-07T02:00:56;19.30;96.30
47168;DHT22;32931;47.778;17.806;2023-09-07T02:03:23;19.20;96.40
47168;DHT22;32931;47.778;17.806;2023-09-07T02:05:49;19.20;96.40
47168;DHT22;32931;47.778;17.806;2023-09-07T02:08:15;19.20;96.40
47168;DHT22;32931;47.778;17.806;2023-09-07T02:10:42;19.30;96.40
47168;DHT22;32931;47.778;17.806;2023-09-07T02:13:08;19.20;96.40
47168;DHT22;32931;47.778;17.806;2023-09-07T02:15:40;19.20;96.50
47168;DHT22;32931;47.778;17.806;2023-09-07T02:18:06;19.20;96.50
47168;DHT22;32931;47.778;17.806;2023-09-07T02:20:33;19.20;96.50
47168;DHT22;32931;47.778;17.806;2023-09-07T02:22:59;19.20;96.30
47168;DHT22;32931;47.778;17.806;2023-09-07T02:25:26;19.10;96.00
47168;DHT22;32931;47.778;17.806;2023-09-07T02:27:53;19.00;96.00
47168;DHT22;32931;47.778;17.806;2023-09-07T02:30:19;19.00;96.00
47168;DHT22;32931;47.778;17.806;2023-09-07T02:32:45;18.90;95.90
47168;DHT22;32931;47.778;17.806;2023-09-07T02:35:11;18.80;95.90
47168;DHT22;32931;47.778;17.806;2023-09-07T02:37:38;18.70;96.00
47168;DHT22;32931;47.778;17.806;2023-09-07T02:40:04;18.70;96.10
47168;DHT22;32931;47.778;17.806;2023-09-07T02:42:34;18.60;96.00
47168;DHT22;32931;47.778;17.806;2023-09-07T02:45:00;18.60;96.00
47168;DHT22;32931;47.778;17.806;2023-09-07T02:47:26;18.50;95.80
47168;DHT22;32931;47.778;17.806;2023-09-07T02:49:52;18.50;95.90
47168;DHT22;32931;47.778;17.806;2023-09-07T02:52:18;18.40;95.70
47168;DHT22;32931;47.778;17.806;2023-09-07T02:54:45;18.40;95.70
47168;DHT22;32931;47.778;17.806;2023-09-07T02:57:11;18.30;95.70
47168;DHT22;32931;47.778;17.806;2023-09-07T02:59:38;18.30;95.90
47168;DHT22;32931;47.778;17.806;2023-09-07T03:02:04;18.30;96.10
47168;DHT22;32931;47.778;17.806;2023-09-07T03:04:30;18.30;96.10
47168;DHT22;32931;47.778;17.806;2023-09-07T03:06:56;18.30;95.90
47168;DHT22;32931;47.778;17.806;2023-09-07T03:09:23;18.20;95.60
47168;DHT22;32931;47.778;17.806;2023-09-07T03:11:49;18.20;95.50
47168;DHT22;32931;47.778;17.806;2023-09-07T03:14:15;18.10;95.30
47168;DHT22;32931;47.778;17.806;2023-09-07T03:16:41;18.10;95.40
47168;DHT22;32931;47.778;17.806;2023-09-07T03:19:07;18.00;95.40
47168;DHT22;32931;47.778;17.806;2023-09-07T03:21:33;17.90;95.50
47168;DHT22;32931;47.778;17.806;2023-09-07T03:23:59;17.80;95.60
47168;DHT22;32931;47.778;17.806;2023-09-07T03:26:26;17.80;95.80
47168;DHT22;32931;47.778;17.806;2023-09-07T03:28:52;17.70;95.90
47168;DHT22;32931;47.778;17.806;2023-09-07T03:31:18;17.70;96.00
47168;DHT22;32931;47.778;17.806;2023-09-07T03:33:44;17.60;96.00
47168;DHT22;32931;47.778;17.806;2023-09-07T03:36:10;17.70;96.00
47168;DHT22;32931;47.778;17.806;2023-09-07T03:38:39;17.60;95.90
47168;DHT22;32931;47.778;17.806;2023-09-07T03:41:06;17.60;95.90
47168;DHT22;32931;47.778;17.806;2023-09-07T03:43:32;17.60;95.90
47168;DHT22;32931;47.778;17.806;2023-09-07T03:45:58;17.60;95.80
47168;DHT22;32931;47.778;17.806;2023-09-07T03:48:24;17.50;95.90
47168;DHT22;32931;47.778;17.806;2023-09-07T03:50:50;17.50;95.80
47168;DHT22;32931;47.778;17.806;2023-09-07T03:53:16;17.50;95.80
47168;DHT22;32931;47.778;17.806;2023-09-07T03:55:44;17.40;95.90
47168;DHT22;32931;47.778;17.806;2023-09-07T03:58:10;17.40;95.80
47168;DHT22;32931;47.778;17.806;2023-09-07T04:00:44;17.40;96.10
47168;DHT22;32931;47.778;17.806;2023-09-07T04:03:10;17.40;96.20
47168;DHT22;32931;47.778;17.806;2023-09-07T04:05:39;17.30;96.20
47168;DHT22;32931;47.778;17.806;2023-09-07T04:08:06;17.30;96.30
47168;DHT22;32931;47.778;17.806;2023-09-07T04:10:36;17.30;96.10
47168;DHT22;32931;47.778;17.806;2023-09-07T04:13:02;17.20;96.20
47168;DHT22;32931;47.778;17.806;2023-09-07T04:15:28;17.20;96.20
47168;DHT22;32931;47.778;17.806;2023-09-07T04:17:57;17.10;96.20
47168;DHT22;32931;47.778;17.806;2023-09-07T04:20:23;17.10;96.20
47168;DHT22;32931;47.778;17.806;2023-09-07T04:22:50;17.10;96.30
47168;DHT22;32931;47.778;17.806;2023-09-07T04:25:16;17.00;96.40
47168;DHT22;32931;47.778;17.806;2023-09-07T04:27:42;17.00;96.50
47168;DHT22;32931;47.778;17.806;2023-09-07T04:30:09;17.10;96.60
47168;DHT22;32931;47.778;17.806;2023-09-07T04:32:35;17.10;96.40
47168;DHT22;32931;47.778;17.806;2023-09-07T04:35:01;17.10;96.30
47168;DHT22;32931;47.778;17.806;2023-09-07T04:37:27;17.00;96.30
47168;DHT22;32931;47.778;17.806;2023-09-07T04:39:53;17.00;96.30
47168;DHT22;32931;47.778;17.806;2023-09-07T04:42:20;16.90;96.40
47168;DHT22;32931;47.778;17.806;2023-09-07T04:44:47;16.80;96.60
47168;DHT22;32931;47.778;17.806;2023-09-07T04:47:14;16.90;96.70
47168;DHT22;32931;47.778;17.806;2023-09-07T04:49:41;16.90;96.80
47168;DHT22;32931;47.778;17.806;2023-09-07T04:52:07;16.90;96.90
47168;DHT22;32931;47.778;17.806;2023-09-07T04:54:35;17.00;96.80
47168;DHT22;32931;47.778;17.806;2023-09-07T04:57:01;16.90;96.70
47168;DHT22;32931;47.778;17.806;2023-09-07T04:59:27;16.90;96.80
47168;DHT22;32931;47.778;17.806;2023-09-07T05:01:54;16.90;96.80
47168;DHT22;32931;47.778;17.806;2023-09-07T05:04:20;16.90;96.80
47168;DHT22;32931;47.778;17.806;2023-09-07T05:06:46;16.90;96.90
47168;DHT22;32931;47.778;17.806;2023-09-07T05:09:12;16.90;97.00
47168;DHT22;32931;47.778;17.806;2023-09-07T05:11:38;16.90;97.10
47168;DHT22;32931;47.778;17.806;2023-09-07T05:14:04;16.90;97.20
47168;DHT22;32931;47.778;17.806;2023-09-07T05:16:31;16.90;97.20
47168;DHT22;32931;47.778;17.806;2023-09-07T05:18:57;17.00;97.30
47168;DHT22;32931;47.778;17.806;2023-09-07T05:21:23;17.00;97.40
47168;DHT22;32931;47.778;17.806;2023-09-07T05:23:49;17.00;97.60
47168;DHT22;32931;47.778;17.806;2023-09-07T05:26:21;17.10;97.70
47168;DHT22;32931;47.778;17.806;2023-09-07T05:28:48;17.10;97.90
47168;DHT22;32931;47.778;17.806;2023-09-07T05:31:14;17.20;97.90
47168;DHT22;32931;47.778;17.806;2023-09-07T05:33:40;17.20;97.90
47168;DHT22;32931;47.778;17.806;2023-09-07T05:36:06;17.30;98.20
47168;DHT22;32931;47.778;17.806;2023-09-07T05:38:33;17.30;98.50
47168;DHT22;32931;47.778;17.806;2023-09-07T05:40:59;17.40;98.70
47168;DHT22;32931;47.778;17.806;2023-09-07T05:43:25;17.50;98.70
47168;DHT22;32931;47.778;17.806;2023-09-07T05:45:51;17.50;98.70
47168;DHT22;32931;47.778;17.806;2023-09-07T05:48:17;17.60;98.80
47168;DHT22;32931;47.778;17.806;2023-09-07T05:50:44;17.70;98.70
47168;DHT22;32931;47.778;17.806;2023-09-07T05:53:10;17.80;98.70
47168;DHT22;32931;47.778;17.806;2023-09-07T05:55:37;17.90;98.50
47168;DHT22;32931;47.778;17.806;2023-09-07T05:58:05;18.00;98.50
47168;DHT22;32931;47.778;17.806;2023-09-07T06:00:32;18.10;98.50
47168;DHT22;32931;47.778;17.806;2023-09-07T06:02:58;18.20;98.60
47168;DHT22;32931;47.778;17.806;2023-09-07T06:05:24;18.30;98.60
47168;DHT22;32931;47.778;17.806;2023-09-07T06:07:50;18.40;98.50
47168;DHT22;32931;47.778;17.806;2023-09-07T06:10:16;18.50;98.60
47168;DHT22;32931;47.778;17.806;2023-09-07T06:12:43;18.60;98.60
47168;DHT22;32931;47.778;17.806;2023-09-07T06:15:09;18.70;98.50
47168;DHT22;32931;47.778;17.806;2023-09-07T06:17:36;18.80;98.40
47168;DHT22;32931;47.778;17.806;2023-09-07T06:20:03;18.90;98.30
47168;DHT22;32931;47.778;17.806;2023-09-07T06:22:29;19.00;98.30
47168;DHT22;32931;47.778;17.806;2023-09-07T06:24:55;19.10;98.30
47168;DHT22;32931;47.778;17.806;2023-09-07T06:27:22;19.20;98.20
47168;DHT22;32931;47.778;17.806;2023-09-07T06:29:49;19.30;98.10
47168;DHT22;32931;47.778;17.806;2023-09-07T06:32:15;19.40;98.00
47168;DHT22;32931;47.778;17.806;2023-09-07T06:34:41;19.40;97.90
47168;DHT22;32931;47.778;17.806;2023-09-07T06:37:07;19.50;97.90
47168;DHT22;32931;47.778;17.806;2023-09-07T06:39:33;19.60;97.70
47168;DHT22;32931;47.778;17.806;2023-09-07T06:41:59;19.60;97.60
47168;DHT22;32931;47.778;17.806;2023-09-07T06:44:26;19.70;97.70
47168;DHT22;32931;47.778;17.806;2023-09-07T06:46:52;19.80;97.60
47168;DHT22;32931;47.778;17.806;2023-09-07T06:49:18;19.80;97.60
47168;DHT22;32931;47.778;17.806;2023-09-07T06:51:45;19.90;97.80
47168;DHT22;32931;47.778;17.806;2023-09-07T06:54:11;20.00;97.70
47168;DHT22;32931;47.778;17.806;2023-09-07T06:56:37;20.10;97.50
47168;DHT22;32931;47.778;17.806;2023-09-07T06:59:03;20.10;97.40
47168;DHT22;32931;47.778;17.806;2023-09-07T07:01:29;20.20;97.40
47168;DHT22;32931;47.778;17.806;2023-09-07T07:03:55;20.30;97.40
47168;DHT22;32931;47.778;17.806;2023-09-07T07:06:23;20.40;97.30
47168;DHT22;32931;47.778;17.806;2023-09-07T07:08:51;20.50;97.00
47168;DHT22;32931;47.778;17.806;2023-09-07T07:11:17;20.60;97.00
47168;DHT22;32931;47.778;17.806;2023-09-07T07:13:43;20.60;96.70
47168;DHT22;32931;47.778;17.806;2023-09-07T07:16:09;20.70;96.50
47168;DHT22;32931;47.778;17.806;2023-09-07T07:18:35;20.80;96.30
47168;DHT22;32931;47.778;17.806;2023-09-07T07:21:01;20.90;95.90
47168;DHT22;32931;47.778;17.806;2023-09-07T07:23:28;21.00;95.60
47168;DHT22;32931;47.778;17.806;2023-09-07T07:25:54;21.00;95.40
47168;DHT22;32931;47.778;17.806;2023-09-07T07:28:21;21.10;95.40
47168;DHT22;32931;47.778;17.806;2023-09-07T07:30:47;21.20;95.10
47168;DHT22;32931;47.778;17.806;2023-09-07T07:33:14;21.30;94.90
47168;DHT22;32931;47.778;17.806;2023-09-07T07:35:40;21.40;94.60
47168;DHT22;32931;47.778;17.806;2023-09-07T07:38:06;21.50;94.60
47168;DHT22;32931;47.778;17.806;2023-09-07T07:40:33;21.50;94.30
47168;DHT22;32931;47.778;17.806;2023-09-07T07:43:00;21.60;93.90
47168;DHT22;32931;47.778;17.806;2023-09-07T07:45:26;21.60;93.70
47168;DHT22;32931;47.778;17.806;2023-09-07T07:47:53;21.80;93.50
47168;DHT22;32931;47.778;17.806;2023-09-07T07:50:19;21.80;93.40
47168;DHT22;32931;47.778;17.806;2023-09-07T07:52:45;21.90;93.20
47168;DHT22;32931;47.778;17.806;2023-09-07T07:55:12;22.00;93.10
47168;DHT22;32931;47.778;17.806;2023-09-07T07:57:38;22.00;93.10
47168;DHT22;32931;47.778;17.806;2023-09-07T08:00:05;22.10;93.20
47168;DHT22;32931;47.778;17.806;2023-09-07T08:02:32;22.20;93.40
47168;DHT22;32931;47.778;17.806;2023-09-07T08:04:58;22.30;93.10
47168;DHT22;32931;47.778;17.806;2023-09-07T08:07:25;22.30;92.90
47168;DHT22;32931;47.778;17.806;2023-09-07T08:09:53;22.40;92.80
47168;DHT22;32931;47.778;17.806;2023-09-07T08:12:20;22.50;92.70
47168;DHT22;32931;47.778;17.806;2023-09-07T08:14:46;22.60;92.50
47168;DHT22;32931;47.778;17.806;2023-09-07T08:17:12;22.60;92.50
47168;DHT22;32931;47.778;17.806;2023-09-07T08:19:38;22.70;92.60
47168;DHT22;32931;47.778;17.806;2023-09-07T08:22:05;22.80;92.20
47168;DHT22;32931;47.778;17.806;2023-09-07T08:24:32;22.80;92.00
47168;DHT22;32931;47.778;17.806;2023-09-07T08:26:58;23.00;92.20
47168;DHT22;32931;47.778;17.806;2023-09-07T08:29:29;23.00;92.00
47168;DHT22;32931;47.778;17.806;2023-09-07T08:31:58;23.10;92.00
47168;DHT22;32931;47.778;17.806;2023-09-07T08:34:25;23.20;91.70
47168;DHT22;32931;47.778;17.806;2023-09-07T08:36:51;23.20;92.00
47168;DHT22;32931;47.778;17.806;2023-09-07T08:39:20;23.30;91.70
47168;DHT22;32931;47.778;17.806;2023-09-07T08:41:46;23.40;91.40
47168;DHT22;32931;47.778;17.806;2023-09-07T08:44:16;23.50;91.10
47168;DHT22;32931;47.778;17.806;2023-09-07T08:46:43;23.50;91.00
47168;DHT22;32931;47.778;17.806;2023-09-07T08:49:10;23.60;90.70
47168;DHT22;32931;47.778;17.806;2023-09-07T08:51:38;23.70;90.90
47168;DHT22;32931;47.778;17.806;2023-09-07T08:54:05;23.70;90.80
47168;DHT22;32931;47.778;17.806;2023-09-07T08:56:32;23.80;90.80
47168;DHT22;32931;47.778;17.806;2023-09-07T08:58:58;23.90;90.60
47168;DHT22;32931;47.778;17.806;2023-09-07T09:01:24;23.90;90.40
47168;DHT22;32931;47.778;17.806;2023-09-07T09:03:51;24.00;90.30
47168;DHT22;32931;47.778;17.806;2023-09-07T09:06:18;24.00;90.10
47168;DHT22;32931;47.778;17.806;2023-09-07T09:08:49;24.10;90.00
47168;DHT22;32931;47.778;17.806;2023-09-07T09:11:19;24.20;89.10
47168;DHT22;32931;47.778;17.806;2023-09-07T09:13:47;24.20;89.00
47168;DHT22;32931;47.778;17.806;2023-09-07T09:16:14;24.30;89.20
47168;DHT22;32931;47.778;17.806;2023-09-07T09:18:55;24.30;89.40
47168;DHT22;32931;47.778;17.806;2023-09-07T09:21:26;24.40;89.80
47168;DHT22;32931;47.778;17.806;2023-09-07T09:23:54;24.50;88.90
47168;DHT22;32931;47.778;17.806;2023-09-07T09:26:20;24.60;88.70
47168;DHT22;32931;47.778;17.806;2023-09-07T09:28:47;24.60;88.30
47168;DHT22;32931;47.778;17.806;2023-09-07T09:31:14;24.70;87.90
47168;DHT22;32931;47.778;17.806;2023-09-07T09:33:41;24.70;87.50
47168;DHT22;32931;47.778;17.806;2023-09-07T09:36:09;24.80;87.00
47168;DHT22;32931;47.778;17.806;2023-09-07T09:38:35;24.90;87.00
47168;DHT22;32931;47.778;17.806;2023-09-07T09:41:03;25.00;87.30
47168;DHT22;32931;47.778;17.806;2023-09-07T09:43:30;25.00;87.50
47168;DHT22;32931;47.778;17.806;2023-09-07T09:45:56;25.10;87.00
47168;DHT22;32931;47.778;17.806;2023-09-07T09:48:24;25.20;86.60
47168;DHT22;32931;47.778;17.806;2023-09-07T09:50:50;25.30;86.50
47168;DHT22;32931;47.778;17.806;2023-09-07T09:53:17;25.30;85.70
47168;DHT22;32931;47.778;17.806;2023-09-07T09:55:48;25.40;85.10
47168;DHT22;32931;47.778;17.806;2023-09-07T09:58:15;25.50;85.00
47168;DHT22;32931;47.778;17.806;2023-09-07T10:00:46;25.60;84.60
47168;DHT22;32931;47.778;17.806;2023-09-07T10:03:32;25.70;84.70
47168;DHT22;32931;47.778;17.806;2023-09-07T10:06:12;25.70;84.90
47168;DHT22;32931;47.778;17.806;2023-09-07T10:09:02;25.80;87.00
47168;DHT22;32931;47.778;17.806;2023-09-07T10:11:34;25.90;85.90
47168;DHT22;32931;47.778;17.806;2023-09-07T10:14:02;25.90;83.80
47168;DHT22;32931;47.778;17.806;2023-09-07T10:16:53;26.00;82.90
47168;DHT22;32931;47.778;17.806;2023-09-07T10:19:25;26.10;86.10
47168;DHT22;32931;47.778;17.806;2023-09-07T10:21:54;26.10;83.20
47168;DHT22;32931;47.778;17.806;2023-09-07T10:24:25;26.20;82.80
47168;DHT22;32931;47.778;17.806;2023-09-07T10:26:59;26.30;83.50
47168;DHT22;32931;47.778;17.806;2023-09-07T10:29:26;26.40;84.90
47168;DHT22;32931;47.778;17.806;2023-09-07T10:31:53;26.50;82.80
47168;DHT22;32931;47.778;17.806;2023-09-07T10:34:20;26.50;82.10
47168;DHT22;32931;47.778;17.806;2023-09-07T10:36:48;26.60;81.70
47168;DHT22;32931;47.778;17.806;2023-09-07T10:39:18;26.60;81.90
47168;DHT22;32931;47.778;17.806;2023-09-07T10:41:46;26.70;81.20
47168;DHT22;32931;47.778;17.806;2023-09-07T10:44:12;26.80;80.40
47168;DHT22;32931;47.778;17.806;2023-09-07T10:46:40;26.80;80.50
47168;DHT22;32931;47.778;17.806;2023-09-07T10:49:11;26.90;80.30
47168;DHT22;32931;47.778;17.806;2023-09-07T10:51:42;26.90;83.00
47168;DHT22;32931;47.778;17.806;2023-09-07T10:54:22;27.00;81.50
47168;DHT22;32931;47.778;17.806;2023-09-07T10:56:50;27.10;83.20
47168;DHT22;32931;47.778;17.806;2023-09-07T10:59:16;27.20;80.50
47168;DHT22;32931;47.778;17.806;2023-09-07T11:01:46;27.10;79.20
47168;DHT22;32931;47.778;17.806;2023-09-07T11:04:14;27.20;80.50
47168;DHT22;32931;47.778;17.806;2023-09-07T11:06:43;27.20;79.70
47168;DHT22;32931;47.778;17.806;2023-09-07T11:09:09;27.30;79.80
47168;DHT22;32931;47.778;17.806;2023-09-07T11:11:39;27.30;79.20
47168;DHT22;32931;47.778;17.806;2023-09-07T11:14:05;27.40;78.90
47168;DHT22;32931;47.778;17.806;2023-09-07T11:16:34;27.40;81.00
47168;DHT22;32931;47.778;17.806;2023-09-07T11:19:04;27.40;79.70
47168;DHT22;32931;47.778;17.806;2023-09-07T11:21:31;27.40;80.10
47168;DHT22;32931;47.778;17.806;2023-09-07T11:24:02;27.30;78.90
47168;DHT22;32931;47.778;17.806;2023-09-07T11:26:43;27.40;79.00
47168;DHT22;32931;47.778;17.806;2023-09-07T11:29:13;27.50;81.40
47168;DHT22;32931;47.778;17.806;2023-09-07T11:31:39;27.50;78.50
47168;DHT22;32931;47.778;17.806;2023-09-07T11:34:09;27.50;78.40
47168;DHT22;32931;47.778;17.806;2023-09-07T11:36:36;27.60;80.00
47168;DHT22;32931;47.778;17.806;2023-09-07T11:39:02;27.60;78.00
47168;DHT22;32931;47.778;17.806;2023-09-07T11:41:41;27.70;77.60
47168;DHT22;32931;47.778;17.806;2023-09-07T11:44:08;27.70;79.30
47168;DHT22;32931;47.778;17.806;2023-09-07T11:46:35;27.80;76.70
47168;DHT22;32931;47.778;17.806;2023-09-07T11:49:01;27.80;75.80
47168;DHT22;32931;47.778;17.806;2023-09-07T11:51:27;27.60;76.00
47168;DHT22;32931;47.778;17.806;2023-09-07T11:53:54;27.60;75.10
47168;DHT22;32931;47.778;17.806;2023-09-07T11:56:20;27.50;76.10
47168;DHT22;32931;47.778;17.806;2023-09-07T11:58:46;27.50;75.70
47168;DHT22;32931;47.778;17.806;2023-09-07T12:01:12;27.50;75.10
47168;DHT22;32931;47.778;17.806;2023-09-07T12:03:42;27.40;75.30
47168;DHT22;32931;47.778;17.806;2023-09-07T12:06:09;27.30;75.60
47168;DHT22;32931;47.778;17.806;2023-09-07T12:08:36;27.30;75.90
47168;DHT22;32931;47.778;17.806;2023-09-07T12:11:03;27.20;76.50
47168;DHT22;32931;47.778;17.806;2023-09-07T12:13:29;27.20;76.80
47168;DHT22;32931;47.778;17.806;2023-09-07T12:15:55;27.10;75.80
47168;DHT22;32931;47.778;17.806;2023-09-07T12:18:22;27.00;76.60
47168;DHT22;32931;47.778;17.806;2023-09-07T12:20:49;27.00;75.60
47168;DHT22;32931;47.778;17.806;2023-09-07T12:23:15;27.00;75.30
47168;DHT22;32931;47.778;17.806;2023-09-07T12:25:41;27.00;75.50
47168;DHT22;32931;47.778;17.806;2023-09-07T12:28:08;27.00;75.60
47168;DHT22;32931;47.778;17.806;2023-09-07T12:30:34;27.00;76.60
47168;DHT22;32931;47.778;17.806;2023-09-07T12:33:00;26.90;74.50
47168;DHT22;32931;47.778;17.806;2023-09-07T12:35:27;26.90;73.90
47168;DHT22;32931;47.778;17.806;2023-09-07T12:37:53;26.90;76.00
47168;DHT22;32931;47.778;17.806;2023-09-07T12:40:19;26.90;76.00
47168;DHT22;32931;47.778;17.806;2023-09-07T12:42:46;26.80;75.50
47168;DHT22;32931;47.778;17.806;2023-09-07T12:45:12;26.80;77.50
47168;DHT22;32931;47.778;17.806;2023-09-07T12:47:40;26.80;76.60
47168;DHT22;32931;47.778;17.806;2023-09-07T12:50:08;26.80;76.50
47168;DHT22;32931;47.778;17.806;2023-09-07T12:52:35;26.80;76.10
47168;DHT22;32931;47.778;17.806;2023-09-07T12:55:05;26.90;76.20
47168;DHT22;32931;47.778;17.806;2023-09-07T12:57:31;26.80;76.10
47168;DHT22;32931;47.778;17.806;2023-09-07T12:59:58;26.90;75.40
47168;DHT22;32931;47.778;17.806;2023-09-07T13:02:24;26.90;75.80
47168;DHT22;32931;47.778;17.806;2023-09-07T13:04:50;27.00;76.10
47168;DHT22;32931;47.778;17.806;2023-09-07T13:07:16;27.00;75.10
47168;DHT22;32931;47.778;17.806;2023-09-07T13:09:43;27.00;74.60
47168;DHT22;32931;47.778;17.806;2023-09-07T13:12:10;27.00;74.90
47168;DHT22;32931;47.778;17.806;2023-09-07T13:14:36;26.90;75.00
47168;DHT22;32931;47.778;17.806;2023-09-07T13:17:02;26.90;75.20
47168;DHT22;32931;47.778;17.806;2023-09-07T13:19:29;26.90;74.40
47168;DHT22;32931;47.778;17.806;2023-09-07T13:21:55;26.90;74.50
47168;DHT22;32931;47.778;17.806;2023-09-07T13:24:21;27.00;74.30
47168;DHT22;32931;47.778;17.806;2023-09-07T13:26:51;26.90;74.40
47168;DHT22;32931;47.778;17.806;2023-09-07T13:29:17;27.00;74.30
47168;DHT22;32931;47.778;17.806;2023-09-07T13:31:44;26.90;73.40
47168;DHT22;32931;47.778;17.806;2023-09-07T13:34:10;27.00;73.50
47168;DHT22;32931;47.778;17.806;2023-09-07T13:36:36;27.00;72.80
47168;DHT22;32931;47.778;17.806;2023-09-07T13:39:02;27.00;74.00
47168;DHT22;32931;47.778;17.806;2023-09-07T13:41:28;27.10;73.50
47168;DHT22;32931;47.778;17.806;2023-09-07T13:43:54;27.10;72.30
47168;DHT22;32931;47.778;17.806;2023-09-07T13:46:22;27.20;72.70
47168;DHT22;32931;47.778;17.806;2023-09-07T13:48:49;27.20;71.70
47168;DHT22;32931;47.778;17.806;2023-09-07T13:51:15;27.10;72.10
47168;DHT22;32931;47.778;17.806;2023-09-07T13:53:41;27.20;71.60
47168;DHT22;32931;47.778;17.806;2023-09-07T13:56:07;27.20;72.20
47168;DHT22;32931;47.778;17.806;2023-09-07T13:58:34;27.20;72.10
47168;DHT22;32931;47.778;17.806;2023-09-07T14:01:00;27.20;70.10
47168;DHT22;32931;47.778;17.806;2023-09-07T14:03:26;27.20;69.40
47168;DHT22;32931;47.778;17.806;2023-09-07T14:05:52;27.30;69.50
47168;DHT22;32931;47.778;17.806;2023-09-07T14:08:18;27.30;70.30
47168;DHT22;32931;47.778;17.806;2023-09-07T14:10:49;27.30;70.40
47168;DHT22;32931;47.778;17.806;2023-09-07T14:13:18;27.40;71.30
47168;DHT22;32931;47.778;17.806;2023-09-07T14:15:44;27.40;72.50
47168;DHT22;32931;47.778;17.806;2023-09-07T14:18:10;27.40;71.40
47168;DHT22;32931;47.778;17.806;2023-09-07T14:20:37;27.50;70.90
47168;DHT22;32931;47.778;17.806;2023-09-07T14:23:03;27.50;70.60
47168;DHT22;32931;47.778;17.806;2023-09-07T14:25:30;27.60;70.80
47168;DHT22;32931;47.778;17.806;2023-09-07T14:27:56;27.60;71.30
47168;DHT22;32931;47.778;17.806;2023-09-07T14:30:22;27.70;71.10
47168;DHT22;32931;47.778;17.806;2023-09-07T14:32:48;27.70;70.90
47168;DHT22;32931;47.778;17.806;2023-09-07T14:35:15;27.90;72.50
47168;DHT22;32931;47.778;17.806;2023-09-07T14:37:41;28.00;72.10
47168;DHT22;32931;47.778;17.806;2023-09-07T14:40:08;28.10;70.90
47168;DHT22;32931;47.778;17.806;2023-09-07T14:42:35;28.30;69.90
47168;DHT22;32931;47.778;17.806;2023-09-07T14:45:02;28.40;69.30
47168;DHT22;32931;47.778;17.806;2023-09-07T14:47:29;28.60;70.60
47168;DHT22;32931;47.778;17.806;2023-09-07T14:49:55;28.80;69.70
47168;DHT22;32931;47.778;17.806;2023-09-07T14:52:22;29.00;68.10
47168;DHT22;32931;47.778;17.806;2023-09-07T14:54:50;29.10;68.40
47168;DHT22;32931;47.778;17.806;2023-09-07T14:57:16;29.30;68.00
47168;DHT22;32931;47.778;17.806;2023-09-07T14:59:42;29.40;68.20
47168;DHT22;32931;47.778;17.806;2023-09-07T15:02:08;29.60;67.60
47168;DHT22;32931;47.778;17.806;2023-09-07T15:04:35;29.70;68.30
47168;DHT22;32931;47.778;17.806;2023-09-07T15:07:01;29.90;67.40
47168;DHT22;32931;47.778;17.806;2023-09-07T15:09:28;30.00;67.70
47168;DHT22;32931;47.778;17.806;2023-09-07T15:11:54;30.10;66.90
47168;DHT22;32931;47.778;17.806;2023-09-07T15:14:20;30.20;66.30